Time;durP1;ratioP1;P1;durP2;ratioP2;P2;SDS_P1;SDS_P2;PMS_P1;PMS_P2;Temp;Humidity;BMP_temperature;BMP_pressure;BME280_temperature;BME280_humidity;BME280_pressure;Samples;Min_cycle;Max_cycle;Signal;HPM_P1;HPM_P2
2022/12/22 03:27:18;;;;;;;15.25;8.83;;;;;;;1.70;92.35;98253.98;1687943;85;27433;-78
2022/12/22 03:29:44;;;;;;;14.35;7.10;;;;;;;1.71;92.35;98244.00;1688051;84;25663;-77
2022/12/22 03:32:10;;;;;;;15.50;7.72;;;;;;;1.71;92.53;98233.20;1688289;85;25638;-78
2022/12/22 03:34:36;;;;;;;15.48;7.17;;;;;;;1.70;92.67;98232.94;1642461;85;25798;-77
2022/12/22 03:37:03;;;;;;;12.73;7.20;;;;;;;1.70;92.61;98229.67;1642583;85;25703;-78
2022/12/22 03:39:29;;;;;;;17.42;7.92;;;;;;;1.75;92.54;98223.48;1688230;85;27480;-76
2022/12/22 03:47:24;;;;;;;15.13;8.20;;;;;;;1.83;92.36;98231.08;1674327;85;25687;-76
2022/12/22 03:49:50;;;;;;;15.48;9.05;;;;;;;1.84;92.42;98221.88;1640207;85;25455;-76
2022/12/22 03:52:16;;;;;;;16.75;8.45;;;;;;;1.87;92.39;98228.11;1674406;85;27292;-76
2022/12/22 03:54:42;;;;;;;12.07;7.05;;;;;;;1.90;92.24;98227.31;1662524;85;25523;-78
2022/12/22 03:57:08;;;;;;;11.57;5.95;;;;;;;1.91;92.45;98226.22;1629454;85;25668;-77
2022/12/22 03:59:35;;;;;;;16.57;7.85;;;;;;;1.87;92.40;98228.64;1674387;85;25747;-75
2022/12/22 04:02:01;;;;;;;7.53;4.05;;;;;;;1.88;92.48;98232.98;1651697;85;25635;-76
2022/12/22 04:04:27;;;;;;;14.25;7.00;;;;;;;1.87;92.78;98224.58;1640047;85;28028;-75
2022/12/22 04:06:53;;;;;;;16.45;9.43;;;;;;;1.87;92.93;98218.65;1639935;85;25556;-76
2022/12/22 04:09:25;;;;;;;18.10;9.98;;;;;;;1.90;92.81;98213.80;1662594;85;25678;-77
2022/12/22 04:14:43;;;;;;;72.37;26.12;;;;;;;1.97;92.71;98218.40;1664223;85;25758;-76
2022/12/22 04:17:16;;;;;;;483.70;142.35;;;;;;;2.00;92.96;98213.28;1662606;85;27337;-75
2022/12/22 04:19:42;;;;;;;371.73;125.30;;;;;;;2.04;92.69;98215.45;1662340;85;25709;-72
2022/12/22 04:22:08;;;;;;;474.58;149.10;;;;;;;2.07;92.63;98229.22;1639991;85;25724;-76
2022/12/22 04:24:34;;;;;;;614.92;171.62;;;;;;;2.08;92.51;98225.45;1662746;85;25744;-76
2022/12/22 04:27:00;;;;;;;103.27;27.42;;;;;;;2.10;92.46;98212.47;1662660;85;25652;-75
2022/12/22 04:29:26;;;;;;;110.12;28.92;;;;;;;2.12;92.65;98215.72;1662530;85;27245;-74
2022/12/22 04:31:53;;;;;;;103.47;26.00;;;;;;;2.10;92.42;98209.77;1662730;85;25480;-74
2022/12/22 04:34:19;;;;;;;148.22;34.38;;;;;;;2.08;92.53;98206.53;1662525;85;25737;-73
2022/12/22 04:36:45;;;;;;;119.47;29.32;;;;;;;2.06;92.48;98208.69;1662657;85;25692;-74
2022/12/22 04:39:11;;;;;;;78.45;20.77;;;;;;;2.03;92.62;98205.17;1685851;85;25653;-73
2022/12/22 04:41:37;;;;;;;118.00;26.82;;;;;;;1.98;92.67;98202.45;1665727;85;27530;-72
2022/12/22 04:44:03;;;;;;;46.98;13.78;;;;;;;1.99;92.74;98201.39;1666398;85;25496;-71
2022/12/22 04:46:29;;;;;;;93.70;24.37;;;;;;;2.00;92.94;98199.77;1688415;85;25610;-71
2022/12/22 04:48:56;;;;;;;50.67;16.32;;;;;;;2.04;92.72;98211.39;1666464;85;25574;-70
2022/12/22 04:51:22;;;;;;;58.65;17.55;;;;;;;2.07;92.83;98209.50;1666525;85;25704;-72
2022/12/22 04:53:48;;;;;;;70.25;20.12;;;;;;;2.08;92.81;98202.48;1688320;85;27330;-71
2022/12/22 04:56:14;;;;;;;52.38;18.37;;;;;;;2.10;92.64;98197.59;1666561;85;25529;-71
2022/12/22 04:58:40;;;;;;;91.40;23.70;;;;;;;2.15;92.61;98194.09;1689779;84;25510;-71
2022/12/22 05:01:15;;;;;;;104.03;27.10;;;;;;;2.17;92.54;98190.59;1666635;85;25629;-71
2022/12/22 05:03:41;;;;;;;44.18;16.45;;;;;;;2.20;92.40;98190.58;1687992;84;25433;-71
2022/12/22 05:06:08;;;;;;;32.20;14.53;;;;;;;2.22;92.53;98190.57;1644165;85;27373;-71
2022/12/22 05:08:34;;;;;;;31.35;14.30;;;;;;;2.24;92.63;98180.84;1662022;85;25547;-71
2022/12/22 05:11:01;;;;;;;28.35;11.15;;;;;;;2.26;92.88;98177.33;1689738;84;25617;-70
2022/12/22 05:13:29;;;;;;;24.47;11.70;;;;;;;2.22;92.88;98169.50;1644051;85;25989;-69
2022/12/22 05:16:08;;;;;;;30.77;12.68;;;;;;;2.19;92.73;98163.28;1688303;85;25742;-69
2022/12/22 05:18:36;;;;;;;47.48;17.65;;;;;;;2.18;92.83;98161.64;1666726;85;27384;-69
2022/12/22 05:21:06;;;;;;;26.07;12.23;;;;;;;2.20;92.76;98166.25;1665983;85;25693;-68
2022/12/22 05:23:33;;;;;;;33.35;12.75;;;;;;;2.22;92.88;98166.23;1666568;85;25459;-68
2022/12/22 05:25:59;;;;;;;41.28;15.88;;;;;;;2.24;92.71;98168.14;1644091;85;25649;-67
2022/12/22 05:28:25;;;;;;;81.32;25.72;;;;;;;2.22;92.46;98174.34;1666766;85;25649;-67
2022/12/22 05:30:52;;;;;;;62.67;21.90;;;;;;;2.23;92.06;98186.80;1689563;84;27434;-67
2022/12/22 05:33:19;;;;;;;49.63;18.07;;;;;;;2.22;91.97;98185.16;1666309;85;25737;-67
2022/12/22 05:35:46;;;;;;;51.42;18.45;;;;;;;2.23;91.95;98184.63;1662077;84;25525;-67
2022/12/22 05:38:12;;;;;;;39.63;14.87;;;;;;;2.19;91.86;98188.41;1666558;85;26238;-67
2022/12/22 05:40:38;;;;;;;37.28;16.80;;;;;;;2.13;91.83;98178.70;1666036;83;25692;-67
2022/12/22 05:43:04;;;;;;;35.70;14.05;;;;;;;2.07;91.85;98175.72;1666558;85;27457;-67
2022/12/22 05:45:31;;;;;;;24.10;12.58;;;;;;;1.99;92.01;98170.30;1666720;85;25899;-67
2022/12/22 05:47:57;;;;;;;34.08;14.93;;;;;;;1.92;92.21;98164.33;1666698;85;25673;-67
2022/12/22 05:50:25;;;;;;;45.75;19.02;;;;;;;1.88;92.13;98164.87;1644096;85;25774;-67
2022/12/22 05:52:51;;;;;;;64.55;19.85;;;;;;;1.86;92.18;98177.85;1666807;85;25695;-67
2022/12/22 05:55:17;;;;;;;57.70;19.30;;;;;;;1.84;92.13;98185.41;1666812;85;27651;-67
2022/12/22 05:58:01;;;;;;;46.55;17.75;;;;;;;1.83;92.21;98181.09;1643897;85;25697;-67
2022/12/22 06:00:29;;;;;;;46.95;17.75;;;;;;;1.84;92.35;98185.97;1684444;84;25508;-67
2022/12/22 06:02:56;;;;;;;26.80;10.82;;;;;;;1.84;92.32;98175.95;1644300;85;25713;-66
2022/12/22 06:05:29;;;;;;;33.02;15.60;;;;;;;1.83;92.42;98166.76;1666528;85;25712;-67
2022/12/22 06:08:06;;;;;;;32.75;14.33;;;;;;;1.84;92.40;98169.19;1666873;85;26112;-67
2022/12/22 06:10:33;;;;;;;35.80;16.07;;;;;;;1.84;92.32;98160.30;1666433;85;25639;-67
2022/12/22 06:12:59;;;;;;;27.85;12.82;;;;;;;1.83;92.27;98162.17;1666576;85;25820;-66
2022/12/22 06:15:25;;;;;;;28.65;14.07;;;;;;;1.84;92.20;98165.70;1644051;85;25652;-66
2022/12/22 06:17:51;;;;;;;68.50;23.52;;;;;;;1.82;92.20;98167.84;1666765;85;25487;-66
2022/12/22 06:20:18;;;;;;;26.25;12.10;;;;;;;1.80;92.32;98165.94;1666991;85;27448;-66
2022/12/22 06:22:44;;;;;;;18.52;9.15;;;;;;;1.78;92.38;98172.17;1666778;85;25707;-66
2022/12/22 06:25:10;;;;;;;68.15;33.30;;;;;;;1.69;92.64;98167.28;1686034;85;25444;-66
2022/12/22 06:27:37;;;;;;;62.25;24.05;;;;;;;1.66;92.54;98168.34;1643961;85;27391;-66
2022/12/22 06:30:05;;;;;;;51.30;18.27;;;;;;;1.66;92.41;98175.09;1639643;85;25743;-67
2022/12/22 06:32:31;;;;;;;33.38;15.88;;;;;;;1.66;92.58;98176.45;1643012;85;27496;-66
2022/12/22 06:34:57;;;;;;;38.78;16.70;;;;;;;1.67;92.71;98172.13;1665343;85;25501;-66
2022/12/22 06:37:23;;;;;;;35.55;18.57;;;;;;;1.67;92.99;98169.98;1665636;85;25633;-67
2022/12/22 06:39:49;;;;;;;36.85;15.85;;;;;;;1.72;92.77;98171.33;1684585;84;25789;-66
2022/12/22 06:45:00;;;;;;;45.48;22.70;;;;;;;1.78;92.70;98164.06;1668167;85;25663;-66
2022/12/22 06:47:26;;;;;;;84.50;37.17;;;;;;;1.81;92.66;98162.19;1665201;85;25797;-66
2022/12/22 06:49:52;;;;;;;41.55;19.75;;;;;;;1.82;92.66;98164.62;1665093;85;25737;-66
2022/12/22 06:52:19;;;;;;;30.80;15.10;;;;;;;1.84;92.60;98162.44;1664990;85;25663;-66
2022/12/22 06:54:45;;;;;;;31.48;14.50;;;;;;;1.87;92.54;98163.25;1665166;85;25428;-66
2022/12/22 06:57:11;;;;;;;28.92;13.75;;;;;;;1.91;92.60;98164.89;1688141;85;27054;-65
2022/12/22 06:59:37;;;;;;;28.27;14.28;;;;;;;1.92;92.73;98167.03;1688445;85;25710;-66
2022/12/22 07:02:03;;;;;;;25.77;13.68;;;;;;;1.93;92.76;98160.01;1661467;85;26542;-65
2022/12/22 07:04:30;;;;;;;31.90;15.58;;;;;;;1.94;92.76;98154.08;1646951;85;26085;-66
2022/12/22 07:06:56;;;;;;;26.68;13.93;;;;;;;1.95;92.56;98147.05;1656687;85;25717;-65
2022/12/22 07:09:22;;;;;;;45.45;23.73;;;;;;;1.96;92.44;98146.52;1662788;85;27502;-66
2022/12/22 07:11:49;;;;;;;61.18;32.25;;;;;;;1.98;92.32;98143.81;1643755;85;25657;-66
2022/12/22 07:14:15;;;;;;;34.18;16.77;;;;;;;2.03;92.42;98138.95;1666687;85;25625;-66
2022/12/22 07:16:41;;;;;;;72.40;24.87;;;;;;;2.06;92.26;98142.47;1644267;85;25926;-65
2022/12/22 07:19:07;;;;;;;53.98;23.38;;;;;;;2.09;91.97;98142.45;1666662;85;25487;-65
2022/12/22 07:21:34;;;;;;;82.45;26.30;;;;;;;2.08;91.67;98141.66;1666451;85;27443;-65
2022/12/22 07:24:00;;;;;;;57.33;23.62;;;;;;;2.11;92.06;98134.36;1666585;85;25701;-65
2022/12/22 07:26:26;;;;;;;46.35;20.08;;;;;;;2.15;92.16;98129.20;1644193;85;25710;-65
2022/12/22 07:28:52;;;;;;;46.25;19.85;;;;;;;2.13;91.96;98132.19;1644009;85;25813;-65
2022/12/22 07:31:18;;;;;;;35.98;15.28;;;;;;;2.09;92.20;98127.05;1643934;85;25521;-65
2022/12/22 07:33:45;;;;;;;35.75;16.50;;;;;;;2.08;92.25;98115.98;1689543;84;27424;-65
2022/12/22 07:36:16;;;;;;;50.15;19.55;;;;;;;2.07;92.19;98107.59;1661627;85;25656;-65
2022/12/22 07:38:46;;;;;;;49.53;20.35;;;;;;;2.09;92.21;98116.77;1687019;85;25674;-65
2022/12/22 07:44:01;;;;;;;59.80;23.42;;;;;;;2.13;91.80;98125.42;1669441;85;25697;-65
2022/12/22 07:46:31;;;;;;;47.40;22.40;;;;;;;2.21;91.89;98130.01;1643908;85;27128;-65
2022/12/22 07:51:43;;;;;;;34.08;15.90;;;;;;;2.38;91.52;98118.91;1689101;84;25634;-65
2022/12/22 07:54:12;;;;;;;32.75;14.70;;;;;;;2.48;91.42;98117.53;1666344;85;25845;-65
2022/12/22 07:56:39;;;;;;;37.70;14.65;;;;;;;2.53;91.13;98103.19;1666867;85;25701;-64
2022/12/22 07:59:06;;;;;;;46.00;19.50;;;;;;;2.56;90.97;98111.32;1644013;85;27131;-64
2022/12/22 08:01:32;;;;;;;47.83;18.50;;;;;;;2.51;90.47;98122.95;1666672;85;26015;-64
2022/12/22 08:03:58;;;;;;;32.48;14.80;;;;;;;2.44;90.63;98117.00;1666427;85;25711;-64
2022/12/22 08:06:25;;;;;;;47.08;20.15;;;;;;;2.46;91.06;98121.61;1642855;85;26010;-65
2022/12/22 08:08:52;;;;;;;53.83;20.92;;;;;;;2.40;90.96;98114.58;1664397;85;25669;-64
2022/12/22 08:11:18;;;;;;;53.42;23.38;;;;;;;2.41;91.00;98118.37;1666313;85;27581;-65
2022/12/22 08:13:45;;;;;;;49.20;21.37;;;;;;;2.40;90.97;98123.52;1666592;85;25887;-65
2022/12/22 08:16:13;;;;;;;51.10;21.80;;;;;;;2.41;90.74;98136.48;1666797;85;25596;-65
2022/12/22 08:18:40;;;;;;;45.83;19.77;;;;;;;2.46;90.94;98139.19;1666810;85;26405;-65
2022/12/22 08:21:08;;;;;;;36.13;18.10;;;;;;;2.49;91.16;98128.64;1689861;84;25703;-65
2022/12/22 08:23:35;;;;;;;43.90;18.20;;;;;;;2.54;91.31;98122.41;1666439;85;27378;-64
2022/12/22 08:26:29;;;;;;;45.03;18.80;;;;;;;2.66;91.34;98122.11;1643980;85;26417;-64
2022/12/22 08:29:10;;;;;;;35.90;16.40;;;;;;;2.79;90.89;98115.29;1685327;84;25728;-65
2022/12/22 08:31:36;;;;;;;42.33;17.67;;;;;;;2.86;91.03;98113.66;1681571;84;26059;-65
2022/12/22 08:34:07;;;;;;;39.80;16.87;;;;;;;3.00;91.04;98120.09;1666558;85;25506;-64
2022/12/22 08:36:38;;;;;;;35.55;16.80;;;;;;;3.07;90.56;98121.16;1666645;85;27390;-64
2022/12/22 08:39:06;;;;;;;60.48;24.25;;;;;;;3.12;90.61;98123.84;1686211;84;25425;-64
2022/12/22 08:41:49;;;;;;;32.67;15.58;;;;;;;3.20;90.38;98110.25;1643242;85;25502;-64
2022/12/22 08:44:23;;;;;;;30.48;13.65;;;;;;;3.32;90.54;98098.28;1689256;84;25780;-65
2022/12/22 08:46:51;;;;;;;34.95;15.30;;;;;;;3.51;90.12;98101.14;1643933;85;25524;-65
2022/12/22 08:49:18;;;;;;;41.73;19.75;;;;;;;3.69;89.22;98111.06;1644144;85;27990;-65
2022/12/22 08:51:45;;;;;;;35.73;17.65;;;;;;;3.78;88.79;98097.18;1643925;85;26101;-65
2022/12/22 08:54:11;;;;;;;37.08;18.10;;;;;;;3.94;88.94;98091.64;1666331;85;25628;-66
2022/12/22 08:56:37;;;;;;;40.40;19.45;;;;;;;4.09;88.62;98090.70;1690015;84;25685;-66
2022/12/22 08:59:06;;;;;;;38.25;16.97;;;;;;;4.22;88.43;98087.86;1666711;85;25755;-66
2022/12/22 09:01:35;;;;;;;44.03;20.23;;;;;;;4.31;87.11;98092.11;1666892;85;28559;-66
2022/12/22 09:04:02;;;;;;;49.23;20.70;;;;;;;4.28;87.15;98079.94;1643853;85;25787;-66
2022/12/22 09:06:29;;;;;;;33.88;15.05;;;;;;;4.36;87.55;98072.55;1666505;85;25604;-66
2022/12/22 09:09:01;;;;;;;29.85;15.63;;;;;;;4.40;86.64;98074.12;1641933;85;27306;-67
2022/12/22 09:11:29;;;;;;;44.73;20.62;;;;;;;4.39;86.60;98081.47;1642170;85;25707;-66
2022/12/22 09:13:58;;;;;;;43.73;21.10;;;;;;;4.39;86.48;98090.14;1666288;85;27405;-67
2022/12/22 09:16:27;;;;;;;39.90;19.07;;;;;;;4.44;86.71;98082.50;1666374;85;26111;-66
2022/12/22 09:19:01;;;;;;;35.05;17.12;;;;;;;4.50;85.99;98065.89;1643767;85;25746;-67
2022/12/22 09:21:28;;;;;;;32.33;14.40;;;;;;;4.61;85.85;98063.84;1643469;85;25817;-68
2022/12/22 09:23:56;;;;;;;27.32;12.73;;;;;;;4.70;84.80;98062.69;1666137;85;25640;-68
2022/12/22 09:26:25;;;;;;;23.87;11.25;;;;;;;4.81;84.28;98060.62;1643854;85;28293;-68
2022/12/22 09:28:53;;;;;;;23.30;12.35;;;;;;;4.94;84.50;98048.27;1686431;85;25696;-68
2022/12/22 09:31:21;;;;;;;31.57;15.03;;;;;;;5.10;83.54;98052.93;1643805;85;25761;-68
2022/12/22 09:33:48;;;;;;;38.28;18.65;;;;;;;5.25;83.06;98050.58;1666613;85;25699;-67
2022/12/22 09:36:19;;;;;;;33.50;17.07;;;;;;;5.44;83.15;98053.03;1643853;85;25798;-68
2022/12/22 09:38:46;;;;;;;42.25;20.92;;;;;;;5.64;82.88;98052.70;1666640;85;28052;-68
2022/12/22 09:41:44;;;;;;;37.25;18.42;;;;;;;5.86;82.83;98055.91;1643754;85;25474;-68
2022/12/22 09:44:16;;;;;;;43.05;21.07;;;;;;;5.96;80.35;98050.28;1686304;85;25745;-68
2022/12/22 09:46:43;;;;;;;43.20;20.37;;;;;;;6.19;81.61;98039.58;1670401;85;25815;-66
2022/12/22 09:49:16;;;;;;;37.38;19.70;;;;;;;6.39;80.38;98037.04;1644150;85;25690;-66
2022/12/22 09:51:52;;;;;;;35.50;19.15;;;;;;;6.68;80.71;98031.04;1666559;85;27463;-66
2022/12/22 09:54:20;;;;;;;40.05;20.72;;;;;;;7.01;79.04;98017.84;1636295;87;25824;-66
2022/12/22 09:56:47;;;;;;;42.80;22.70;;;;;;;7.26;78.06;98023.84;1612350;87;25756;-66
2022/12/22 09:59:17;;;;;;;71.25;32.00;;;;;;;7.55;78.41;98024.55;1587721;87;25814;-66
2022/12/22 10:02:08;;;;;;;33.03;16.10;;;;;;;7.81;78.87;98011.66;1617631;87;25511;-66
2022/12/22 10:05:07;;;;;;;37.93;18.40;;;;;;;8.02;74.81;98011.94;1638336;87;27493;-65
2022/12/22 10:07:38;;;;;;;36.23;18.90;;;;;;;8.01;75.31;98009.75;1616365;87;25838;-64
2022/12/22 10:10:23;;;;;;;36.35;17.67;;;;;;;8.15;74.98;98007.52;1638397;87;25743;-64
2022/12/22 10:12:53;;;;;;;38.20;18.45;;;;;;;8.25;72.96;98005.06;1616572;87;25749;-64
2022/12/22 10:15:20;;;;;;;42.70;20.12;;;;;;;8.39;73.06;98003.05;1616541;87;25478;-64
2022/12/22 10:17:50;;;;;;;33.30;17.60;;;;;;;8.56;73.58;98002.08;1595325;87;26492;-64
2022/12/22 10:20:26;;;;;;;44.23;23.05;;;;;;;8.75;72.19;97982.12;1637895;87;34635;-65
2022/12/22 10:23:05;;;;;;;41.85;21.73;;;;;;;8.88;72.48;97977.66;1595449;87;25754;-64
2022/12/22 10:25:40;;;;;;;30.82;17.05;;;;;;;9.07;70.63;97961.50;1638182;87;25874;-64
2022/12/22 10:28:15;;;;;;;36.00;20.23;;;;;;;9.38;69.59;97953.70;1615581;87;25709;-64
2022/12/22 10:30:42;;;;;;;38.73;20.02;;;;;;;9.71;71.61;97954.30;1645429;85;29538;-63
2022/12/22 10:33:15;;;;;;;38.73;21.75;;;;;;;10.01;69.83;97943.41;1689769;84;25475;-64
2022/12/22 10:35:55;;;;;;;36.48;19.25;;;;;;;10.26;69.96;97945.83;1644173;85;25729;-65
2022/12/22 10:38:31;;;;;;;40.43;20.90;;;;;;;10.54;68.35;97948.70;1643731;85;25784;-65
2022/12/22 10:41:20;;;;;;;41.65;23.35;;;;;;;10.61;68.26;97944.86;1662355;85;25831;-65
2022/12/22 10:43:52;;;;;;;42.80;23.83;;;;;;;10.73;69.77;97947.44;1686741;84;27376;-65
2022/12/22 10:46:50;;;;;;;47.48;26.10;;;;;;;10.81;67.31;97947.15;1687516;84;25815;-64
2022/12/22 10:49:31;;;;;;;39.45;21.10;;;;;;;10.99;69.68;97935.48;1689672;84;25680;-65
2022/12/22 10:52:22;;;;;;;37.90;19.92;;;;;;;11.29;66.02;97943.65;1689461;84;25799;-65
2022/12/22 10:54:49;;;;;;;33.65;17.65;;;;;;;11.33;64.53;97942.39;1689033;84;25805;-64
2022/12/22 10:57:21;;;;;;;45.60;25.25;;;;;;;11.39;65.13;97936.37;1637792;86;27958;-64
2022/12/22 10:59:51;;;;;;;34.65;20.72;;;;;;;11.39;65.13;97936.37;1662114;86;25455;-63
2022/12/22 11:02:26;;;;;;;30.43;18.35;;;;;;;11.44;64.96;97927.69;1617286;86;25737;-63
2022/12/22 11:04:56;;;;;;;30.60;17.27;;;;;;;11.43;64.04;97918.67;1661795;86;26696;-61
2022/12/22 11:07:24;;;;;;;22.90;12.50;;;;;;;11.49;63.58;97917.30;1638164;86;25909;-62
2022/12/22 11:09:50;;;;;;;23.05;13.80;;;;;;;11.23;61.26;97912.86;1660452;86;27444;-62
2022/12/22 11:12:40;;;;;;;25.77;15.18;;;;;;;10.70;62.42;97913.84;1639145;86;25733;-62
2022/12/22 11:15:20;;;;;;;22.17;13.40;;;;;;;10.25;64.63;97909.19;1661843;86;25814;-62
2022/12/22 11:18:14;;;;;;;25.90;16.52;;;;;;;9.81;64.58;97900.58;1662165;86;25751;-63
2022/12/22 11:21:16;;;;;;;25.97;15.23;;;;;;;9.39;66.12;97904.70;1662059;86;25699;-62
2022/12/22 11:24:13;;;;;;;26.65;15.63;;;;;;;9.02;66.64;97903.73;1662106;86;28205;-62
2022/12/22 11:27:09;;;;;;;28.32;15.60;;;;;;;8.62;67.49;97893.74;1639081;86;25718;-62
2022/12/22 11:29:53;;;;;;;29.55;16.00;;;;;;;8.39;68.46;97891.66;1639290;86;25632;-63
2022/12/22 11:32:39;;;;;;;27.55;12.33;;;;;;;8.29;68.94;97881.27;1662060;86;25574;-64
2022/12/22 11:35:53;;;;;;;22.50;12.15;;;;;;;8.13;68.85;97884.20;1660739;86;25469;-64
2022/12/22 11:38:49;;;;;;;24.75;14.13;;;;;;;7.82;69.66;97886.41;1662044;86;28070;-64
2022/12/22 11:41:40;;;;;;;27.98;15.90;;;;;;;7.62;70.46;97886.66;1660535;86;26151;-65
2022/12/22 11:44:40;;;;;;;33.15;19.67;;;;;;;7.59;70.84;97885.92;1658898;86;25648;-64
2022/12/22 11:47:39;;;;;;;40.17;21.90;;;;;;;7.61;70.77;97891.88;1617568;86;25626;-64
2022/12/22 11:50:26;;;;;;;33.63;19.45;;;;;;;7.68;70.53;97889.27;1658105;86;26578;-63
2022/12/22 11:53:07;;;;;;;39.98;21.10;;;;;;;7.68;70.21;97885.17;1658644;86;27394;-64
2022/12/22 11:56:12;;;;;;;39.23;20.25;;;;;;;7.59;69.75;97882.37;1639582;86;25745;-64
2022/12/22 11:59:05;;;;;;;43.92;23.12;;;;;;;7.49;70.77;97871.98;1639284;86;25514;-65
2022/12/22 12:01:54;;;;;;;45.28;23.47;;;;;;;7.32;70.96;97878.71;1662065;86;25690;-64
2022/12/22 12:04:34;;;;;;;40.65;21.15;;;;;;;7.14;71.36;97870.44;1658037;86;25711;-64
2022/12/22 12:07:40;;;;;;;38.42;19.30;;;;;;;6.89;71.65;97874.83;1658904;86;33043;-64
2022/12/22 12:10:26;;;;;;;35.83;17.05;;;;;;;6.70;72.38;97860.01;1658503;86;25932;-64
2022/12/22 12:13:30;;;;;;;39.15;19.48;;;;;;;6.39;73.32;97864.22;1661888;86;25746;-64
2022/12/22 12:16:39;;;;;;;44.90;22.13;;;;;;;6.21;73.81;97852.91;1661746;86;25656;-64
2022/12/22 12:19:20;;;;;;;38.35;19.10;;;;;;;6.09;74.20;97867.85;1639325;86;25695;-64
2022/12/22 12:22:02;;;;;;;33.85;16.75;;;;;;;5.99;74.90;97854.44;1635732;87;28181;-65
2022/12/22 12:25:01;;;;;;;34.08;16.23;;;;;;;5.93;75.20;97854.28;1635602;87;25775;-64
2022/12/22 12:27:57;;;;;;;26.07;13.80;;;;;;;5.80;76.49;97845.01;1658017;86;25703;-64
2022/12/22 12:30:24;;;;;;;28.90;14.73;;;;;;;5.63;77.25;97842.34;1634831;87;25797;-63
2022/12/22 12:33:08;;;;;;;34.08;15.72;;;;;;;5.52;77.49;97854.77;1657689;86;25562;-64
2022/12/22 12:35:51;;;;;;;32.20;15.75;;;;;;;5.42;77.85;97852.23;1635615;87;27527;-64
2022/12/22 12:38:32;;;;;;;26.10;12.65;;;;;;;5.32;78.05;97861.94;1658165;86;25741;-64
2022/12/22 12:41:11;;;;;;;33.18;15.85;;;;;;;5.18;78.57;97850.46;1635777;86;25610;-64
2022/12/22 12:43:39;;;;;;;27.50;13.93;;;;;;;5.10;78.76;97860.66;1635673;86;26701;-63
2022/12/22 12:46:46;;;;;;;37.48;17.55;;;;;;;5.01;79.25;97863.26;1657891;86;25719;-64
2022/12/22 12:49:38;;;;;;;38.02;17.87;;;;;;;4.99;78.96;97860.02;1652792;86;28162;-64
2022/12/22 12:52:06;;;;;;;55.30;24.82;;;;;;;4.93;79.44;97848.45;1635427;87;25655;-65
2022/12/22 12:54:39;;;;;;;91.63;40.25;;;;;;;4.90;79.42;97841.67;1658043;86;25738;-65
2022/12/22 12:57:46;;;;;;;53.00;27.70;;;;;;;4.84;79.53;97838.79;1635380;86;25749;-65
2022/12/22 13:00:36;;;;;;;83.40;41.77;;;;;;;4.85;79.60;97837.70;1635705;86;25816;-66
2022/12/22 13:03:13;;;;;;;59.48;29.15;;;;;;;4.87;79.80;97844.20;1643630;85;28276;-67
2022/12/22 13:05:55;;;;;;;45.05;24.32;;;;;;;4.88;80.12;97843.91;1682288;85;25766;-68
2022/12/22 13:08:32;;;;;;;86.75;38.48;;;;;;;4.83;80.47;97834.47;1688481;84;25517;-68
2022/12/22 13:11:16;;;;;;;89.28;46.80;;;;;;;4.73;80.20;97841.42;1665056;85;26436;-69
2022/12/22 13:13:46;;;;;;;82.20;37.70;;;;;;;4.65;80.27;97840.18;1684686;85;25619;-72
2022/12/22 13:16:17;;;;;;;118.22;51.65;;;;;;;4.60;80.47;97834.28;1665210;85;27451;-71
2022/12/22 13:18:48;;;;;;;62.48;29.30;;;;;;;4.54;80.64;97834.09;1688336;84;25627;-71
2022/12/22 13:21:25;;;;;;;90.83;39.90;;;;;;;4.50;80.76;97835.80;1688594;84;25513;-71
2022/12/22 13:24:03;;;;;;;78.90;35.68;;;;;;;4.46;80.82;97834.77;1688347;84;25672;-71
2022/12/22 13:26:36;;;;;;;41.68;21.05;;;;;;;4.39;81.18;97829.70;1688315;84;25533;-71
2022/12/22 13:29:24;;;;;;;58.33;25.08;;;;;;;4.33;81.50;97831.69;1688118;84;28139;-70
2022/12/22 13:32:15;;;;;;;82.05;39.42;;;;;;;4.27;81.60;97820.66;1688153;85;25627;-70
2022/12/22 13:35:08;;;;;;;46.42;22.62;;;;;;;4.24;81.66;97823.41;1688231;84;25457;-69
2022/12/22 13:37:38;;;;;;;39.88;18.50;;;;;;;4.19;81.76;97814.52;1665191;85;25677;-69
2022/12/22 13:40:19;;;;;;;39.70;19.17;;;;;;;4.09;81.98;97810.84;1684632;84;32215;-69
2022/12/22 13:43:03;;;;;;;29.00;15.10;;;;;;;4.03;82.29;97814.72;1665304;85;27363;-69
2022/12/22 13:45:43;;;;;;;43.58;21.12;;;;;;;3.93;82.48;97808.08;1663227;85;25729;-69
2022/12/22 13:48:19;;;;;;;31.35;15.80;;;;;;;3.82;82.68;97796.02;1685078;84;25572;-68
2022/12/22 13:50:59;;;;;;;38.67;18.57;;;;;;;3.74;83.12;97795.29;1684803;84;25746;-68
2022/12/22 13:53:45;;;;;;;30.85;14.80;;;;;;;3.69;82.89;97791.30;1684535;85;25613;-68
2022/12/22 13:56:29;;;;;;;40.80;18.00;;;;;;;3.64;83.41;97793.53;1684485;85;27493;-68
2022/12/22 13:59:00;;;;;;;45.85;19.92;;;;;;;3.62;83.48;97795.70;1680550;85;25787;-68
2022/12/22 14:01:28;;;;;;;47.38;22.10;;;;;;;3.60;83.42;97796.00;1688119;85;25665;-67
2022/12/22 14:04:02;;;;;;;40.03;17.87;;;;;;;3.64;83.34;97797.59;1664971;85;25821;-68
2022/12/22 14:06:38;;;;;;;37.20;18.20;;;;;;;3.65;83.24;97796.48;1688458;84;25490;-67
2022/12/22 14:09:18;;;;;;;36.65;18.17;;;;;;;3.68;83.22;97797.83;1665130;85;29001;-68
2022/12/22 14:12:02;;;;;;;37.05;16.35;;;;;;;3.69;83.33;97804.86;1660075;85;25451;-68
2022/12/22 14:14:39;;;;;;;35.90;15.98;;;;;;;3.63;83.51;97798.13;1682818;85;25690;-67
2022/12/22 14:17:26;;;;;;;32.73;15.15;;;;;;;3.59;83.87;97788.98;1688456;84;25742;-67
2022/12/22 14:19:59;;;;;;;37.25;15.45;;;;;;;3.56;83.92;97790.91;1688473;84;25677;-67
2022/12/22 14:22:43;;;;;;;36.33;16.00;;;;;;;3.51;84.01;97795.02;1688457;84;27367;-67
2022/12/22 14:25:25;;;;;;;39.35;19.25;;;;;;;3.47;84.13;97789.92;1665145;85;25490;-66
2022/12/22 14:28:00;;;;;;;36.75;17.82;;;;;;;3.37;84.46;97784.09;1688224;85;25635;-66
2022/12/22 14:30:41;;;;;;;39.20;18.23;;;;;;;3.36;84.52;97789.23;1688413;84;26271;-66
2022/12/22 14:33:33;;;;;;;44.58;17.82;;;;;;;3.36;84.64;97793.29;1685196;85;25489;-65
2022/12/22 14:36:18;;;;;;;39.13;17.82;;;;;;;3.35;84.91;97783.56;1665415;85;27567;-66
2022/12/22 14:38:53;;;;;;;35.03;14.70;;;;;;;3.34;84.98;97782.74;1684670;85;26761;-67
2022/12/22 14:41:40;;;;;;;34.70;15.08;;;;;;;3.35;85.05;97784.91;1642599;85;25732;-66
2022/12/22 14:44:15;;;;;;;33.48;15.53;;;;;;;3.33;85.40;97776.26;1688567;84;25741;-67
2022/12/22 14:46:43;;;;;;;23.57;11.40;;;;;;;3.35;85.26;97771.38;1687141;85;25766;-67
2022/12/22 14:49:17;;;;;;;29.40;12.55;;;;;;;3.33;85.50;97765.42;1688355;85;28177;-66
2022/12/22 14:51:52;;;;;;;35.85;16.40;;;;;;;3.32;85.35;97764.64;1687009;85;25508;-66
2022/12/22 14:54:23;;;;;;;40.40;18.67;;;;;;;3.29;84.94;97764.39;1688568;85;25712;-66
2022/12/22 14:56:52;;;;;;;62.70;25.12;;;;;;;3.26;84.93;97767.92;1688318;85;25699;-65
2022/12/22 14:59:26;;;;;;;43.48;18.98;;;;;;;3.21;84.85;97768.53;1688460;84;25500;-65
2022/12/22 15:02:19;;;;;;;37.70;16.73;;;;;;;3.14;85.09;97779.72;1688270;85;27301;-65
2022/12/22 15:04:45;;;;;;;56.40;23.67;;;;;;;3.12;85.51;97780.01;1686945;85;25484;-65
2022/12/22 15:07:20;;;;;;;48.40;21.82;;;;;;;3.10;85.66;97781.37;1684464;84;25933;-66
2022/12/22 15:09:46;;;;;;;34.48;16.25;;;;;;;3.08;85.69;97783.00;1688390;84;26322;-65
2022/12/22 15:12:17;;;;;;;50.30;22.13;;;;;;;3.11;85.87;97790.55;1642492;85;25462;-65
2022/12/22 15:14:48;;;;;;;43.90;21.00;;;;;;;3.12;86.04;97778.66;1688208;85;28298;-65
2022/12/22 15:17:24;;;;;;;38.15;19.23;;;;;;;3.15;85.98;97779.97;1688092;85;25656;-65
2022/12/22 15:19:59;;;;;;;42.08;19.67;;;;;;;3.19;85.85;97781.58;1686616;85;25690;-65
2022/12/22 15:22:25;;;;;;;39.85;17.60;;;;;;;3.20;85.97;97782.61;1686615;85;25840;-65
2022/12/22 15:24:51;;;;;;;25.32;12.40;;;;;;;3.20;85.56;97788.03;1688257;85;25509;-64
2022/12/22 15:27:17;;;;;;;37.80;17.52;;;;;;;3.19;85.69;97780.22;1688256;85;27374;-65
2022/12/22 15:29:44;;;;;;;37.40;17.55;;;;;;;3.17;85.46;97785.11;1688371;84;25810;-64
2022/12/22 15:32:12;;;;;;;39.92;17.57;;;;;;;3.13;85.48;97791.09;1665608;85;25540;-64
2022/12/22 15:34:39;;;;;;;44.20;19.67;;;;;;;3.11;85.47;97793.27;1688419;84;25639;-64
2022/12/22 15:37:13;;;;;;;50.67;23.02;;;;;;;3.10;85.55;97794.37;1688501;85;25683;-64